sensor_id;sensor_type;location;lat;lon;timestamp;P1;durP1;ratioP1;P2;durP2;ratioP2
1128;SDS011;553;51.038;7.216;2023-03-14T00:01:25;4.20;;;1.27;;
1128;SDS011;553;51.038;7.216;2023-03-14T00:03:52;2.63;;;0.90;;
1128;SDS011;553;51.038;7.216;2023-03-14T00:06:20;2.47;;;0.87;;
1128;SDS011;553;51.038;7.216;2023-03-14T00:08:47;3.37;;;1.10;;
1128;SDS011;553;51.038;7.216;2023-03-14T00:11:15;1.77;;;1.00;;
1128;SDS011;553;51.038;7.216;2023-03-14T00:13:46;2.20;;;1.20;;
1128;SDS011;553;51.038;7.216;2023-03-14T00:16:14;5.43;;;1.63;;
1128;SDS011;553;51.038;7.216;2023-03-14T00:18:41;3.63;;;1.03;;
1128;SDS011;553;51.038;7.216;2023-03-14T00:21:08;5.83;;;1.60;;
1128;SDS011;553;51.038;7.216;2023-03-14T00:23:37;4.37;;;1.50;;
1128;SDS011;553;51.038;7.216;2023-03-14T00:26:06;4.57;;;1.73;;
1128;SDS011;553;51.038;7.216;2023-03-14T00:28:35;4.20;;;1.40;;
1128;SDS011;553;51.038;7.216;2023-03-14T00:31:03;5.40;;;1.47;;
1128;SDS011;553;51.038;7.216;2023-03-14T00:33:30;4.97;;;1.30;;
1128;SDS011;553;51.038;7.216;2023-03-14T00:36:01;8.13;;;1.43;;
1128;SDS011;553;51.038;7.216;2023-03-14T00:38:30;7.77;;;1.40;;
1128;SDS011;553;51.038;7.216;2023-03-14T00:40:58;2.10;;;1.10;;
1128;SDS011;553;51.038;7.216;2023-03-14T00:43:25;2.70;;;1.23;;
1128;SDS011;553;51.038;7.216;2023-03-14T00:45:53;8.77;;;2.80;;
1128;SDS011;553;51.038;7.216;2023-03-14T00:48:20;2.83;;;1.30;;
1128;SDS011;553;51.038;7.216;2023-03-14T00:50:47;8.23;;;1.43;;
1128;SDS011;553;51.038;7.216;2023-03-14T00:53:14;3.03;;;1.30;;
1128;SDS011;553;51.038;7.216;2023-03-14T00:55:42;5.83;;;1.77;;
1128;SDS011;553;51.038;7.216;2023-03-14T00:58:11;5.47;;;1.20;;
1128;SDS011;553;51.038;7.216;2023-03-14T01:00:39;3.70;;;1.90;;
1128;SDS011;553;51.038;7.216;2023-03-14T01:03:07;5.17;;;1.10;;
1128;SDS011;553;51.038;7.216;2023-03-14T01:05:34;4.17;;;1.40;;
1128;SDS011;553;51.038;7.216;2023-03-14T01:08:01;9.13;;;1.60;;
1128;SDS011;553;51.038;7.216;2023-03-14T01:10:28;4.40;;;1.20;;
1128;SDS011;553;51.038;7.216;2023-03-14T01:12:56;4.80;;;1.40;;
1128;SDS011;553;51.038;7.216;2023-03-14T01:15:23;4.47;;;1.40;;
1128;SDS011;553;51.038;7.216;2023-03-14T01:17:50;5.80;;;1.90;;
1128;SDS011;553;51.038;7.216;2023-03-14T01:20:17;4.87;;;1.27;;
1128;SDS011;553;51.038;7.216;2023-03-14T01:22:44;6.90;;;1.47;;
1128;SDS011;553;51.038;7.216;2023-03-14T01:25:12;4.03;;;1.67;;
1128;SDS011;553;51.038;7.216;2023-03-14T01:27:41;3.47;;;1.20;;
1128;SDS011;553;51.038;7.216;2023-03-14T01:30:08;4.53;;;1.23;;
1128;SDS011;553;51.038;7.216;2023-03-14T01:32:36;6.30;;;1.50;;
1128;SDS011;553;51.038;7.216;2023-03-14T01:35:03;4.80;;;0.97;;
1128;SDS011;553;51.038;7.216;2023-03-14T01:37:31;4.03;;;1.00;;
1128;SDS011;553;51.038;7.216;2023-03-14T01:39:58;5.40;;;1.60;;
1128;SDS011;553;51.038;7.216;2023-03-14T01:42:25;4.47;;;0.87;;
1128;SDS011;553;51.038;7.216;2023-03-14T01:44:59;6.80;;;1.50;;
1128;SDS011;553;51.038;7.216;2023-03-14T01:47:27;2.50;;;1.13;;
1128;SDS011;553;51.038;7.216;2023-03-14T01:49:59;5.80;;;1.67;;
1128;SDS011;553;51.038;7.216;2023-03-14T01:52:32;2.07;;;0.80;;
1128;SDS011;553;51.038;7.216;2023-03-14T01:55:23;3.83;;;1.07;;
1128;SDS011;553;51.038;7.216;2023-03-14T01:57:58;3.07;;;0.80;;
1128;SDS011;553;51.038;7.216;2023-03-14T02:00:29;3.57;;;1.03;;
1128;SDS011;553;51.038;7.216;2023-03-14T02:03:05;2.93;;;1.23;;
1128;SDS011;553;51.038;7.216;2023-03-14T02:05:37;4.23;;;1.27;;
1128;SDS011;553;51.038;7.216;2023-03-14T02:08:17;4.67;;;1.50;;
1128;SDS011;553;51.038;7.216;2023-03-14T02:10:49;7.50;;;1.60;;
1128;SDS011;553;51.038;7.216;2023-03-14T02:13:23;5.20;;;1.50;;
1128;SDS011;553;51.038;7.216;2023-03-14T02:16:01;2.13;;;0.80;;
1128;SDS011;553;51.038;7.216;2023-03-14T02:18:47;9.13;;;1.40;;
1128;SDS011;553;51.038;7.216;2023-03-14T02:21:23;9.20;;;1.40;;
1128;SDS011;553;51.038;7.216;2023-03-14T02:27:13;4.67;;;0.83;;
1128;SDS011;553;51.038;7.216;2023-03-14T02:32:19;4.63;;;1.07;;
1128;SDS011;553;51.038;7.216;2023-03-14T02:34:49;3.87;;;0.90;;
1128;SDS011;553;51.038;7.216;2023-03-14T02:37:19;2.30;;;1.03;;
1128;SDS011;553;51.038;7.216;2023-03-14T02:39:49;3.80;;;1.03;;
1128;SDS011;553;51.038;7.216;2023-03-14T02:42:16;3.63;;;0.80;;
1128;SDS011;553;51.038;7.216;2023-03-14T02:44:51;3.77;;;0.97;;
1128;SDS011;553;51.038;7.216;2023-03-14T02:47:27;2.20;;;0.87;;
1128;SDS011;553;51.038;7.216;2023-03-14T02:50:01;3.30;;;1.20;;
1128;SDS011;553;51.038;7.216;2023-03-14T02:52:31;3.37;;;1.17;;
1128;SDS011;553;51.038;7.216;2023-03-14T02:54:58;3.40;;;1.00;;
1128;SDS011;553;51.038;7.216;2023-03-14T02:57:25;1.97;;;0.77;;
1128;SDS011;553;51.038;7.216;2023-03-14T02:59:52;2.13;;;0.73;;
1128;SDS011;553;51.038;7.216;2023-03-14T03:02:19;3.47;;;0.90;;
1128;SDS011;553;51.038;7.216;2023-03-14T03:04:46;5.57;;;1.40;;
1128;SDS011;553;51.038;7.216;2023-03-14T03:07:15;4.70;;;1.80;;
1128;SDS011;553;51.038;7.216;2023-03-14T03:09:42;7.80;;;1.37;;
1128;SDS011;553;51.038;7.216;2023-03-14T03:12:08;2.20;;;0.90;;
1128;SDS011;553;51.038;7.216;2023-03-14T03:14:35;4.50;;;1.40;;
1128;SDS011;553;51.038;7.216;2023-03-14T03:17:04;3.77;;;1.10;;
1128;SDS011;553;51.038;7.216;2023-03-14T03:19:32;5.80;;;1.20;;
1128;SDS011;553;51.038;7.216;2023-03-14T03:22:00;6.00;;;1.70;;
1128;SDS011;553;51.038;7.216;2023-03-14T03:24:27;9.53;;;1.33;;
1128;SDS011;553;51.038;7.216;2023-03-14T03:26:54;3.70;;;1.20;;
1128;SDS011;553;51.038;7.216;2023-03-14T03:29:20;10.10;;;1.67;;
1128;SDS011;553;51.038;7.216;2023-03-14T03:31:47;3.40;;;1.03;;
1128;SDS011;553;51.038;7.216;2023-03-14T03:34:15;5.00;;;1.57;;
1128;SDS011;553;51.038;7.216;2023-03-14T03:36:42;5.00;;;1.60;;
1128;SDS011;553;51.038;7.216;2023-03-14T03:39:10;5.90;;;1.40;;
1128;SDS011;553;51.038;7.216;2023-03-14T03:41:37;6.73;;;0.80;;
1128;SDS011;553;51.038;7.216;2023-03-14T03:44:04;6.60;;;1.73;;
1128;SDS011;553;51.038;7.216;2023-03-14T03:46:32;5.47;;;1.27;;
1128;SDS011;553;51.038;7.216;2023-03-14T03:48:59;8.57;;;1.50;;
1128;SDS011;553;51.038;7.216;2023-03-14T03:51:27;7.00;;;2.10;;
1128;SDS011;553;51.038;7.216;2023-03-14T03:53:55;7.23;;;1.43;;
1128;SDS011;553;51.038;7.216;2023-03-14T03:56:29;7.17;;;1.67;;
1128;SDS011;553;51.038;7.216;2023-03-14T03:58:58;4.70;;;1.50;;
1128;SDS011;553;51.038;7.216;2023-03-14T04:01:25;8.50;;;1.90;;
1128;SDS011;553;51.038;7.216;2023-03-14T04:03:55;3.90;;;1.10;;
1128;SDS011;553;51.038;7.216;2023-03-14T04:06:22;9.77;;;1.20;;
1128;SDS011;553;51.038;7.216;2023-03-14T04:08:53;5.10;;;1.13;;
1128;SDS011;553;51.038;7.216;2023-03-14T04:11:34;8.00;;;1.60;;
1128;SDS011;553;51.038;7.216;2023-03-14T04:14:24;5.40;;;1.70;;
1128;SDS011;553;51.038;7.216;2023-03-14T04:17:14;9.83;;;2.10;;
1128;SDS011;553;51.038;7.216;2023-03-14T04:19:41;6.63;;;1.37;;
1128;SDS011;553;51.038;7.216;2023-03-14T04:22:09;7.97;;;2.00;;
1128;SDS011;553;51.038;7.216;2023-03-14T04:24:44;5.70;;;1.93;;
1128;SDS011;553;51.038;7.216;2023-03-14T04:27:11;4.73;;;1.40;;
1128;SDS011;553;51.038;7.216;2023-03-14T04:29:38;6.60;;;1.33;;
1128;SDS011;553;51.038;7.216;2023-03-14T04:32:05;10.23;;;1.43;;
1128;SDS011;553;51.038;7.216;2023-03-14T04:34:32;5.27;;;1.70;;
1128;SDS011;553;51.038;7.216;2023-03-14T04:36:58;3.73;;;1.40;;
1128;SDS011;553;51.038;7.216;2023-03-14T04:39:32;5.37;;;1.50;;
1128;SDS011;553;51.038;7.216;2023-03-14T04:42:07;6.07;;;1.73;;
1128;SDS011;553;51.038;7.216;2023-03-14T04:44:36;7.07;;;1.77;;
1128;SDS011;553;51.038;7.216;2023-03-14T04:47:02;3.60;;;1.20;;
1128;SDS011;553;51.038;7.216;2023-03-14T04:49:30;5.87;;;1.53;;
1128;SDS011;553;51.038;7.216;2023-03-14T04:51:57;9.07;;;1.83;;
1128;SDS011;553;51.038;7.216;2023-03-14T04:54:26;8.47;;;2.00;;
1128;SDS011;553;51.038;7.216;2023-03-14T04:56:56;5.70;;;2.43;;
1128;SDS011;553;51.038;7.216;2023-03-14T04:59:23;11.73;;;2.27;;
1128;SDS011;553;51.038;7.216;2023-03-14T05:01:53;4.20;;;1.20;;
1128;SDS011;553;51.038;7.216;2023-03-14T05:04:43;4.83;;;1.20;;
1128;SDS011;553;51.038;7.216;2023-03-14T05:07:37;1.87;;;1.30;;
1128;SDS011;553;51.038;7.216;2023-03-14T05:10:26;4.83;;;0.77;;
1128;SDS011;553;51.038;7.216;2023-03-14T05:13:14;6.40;;;1.40;;
1128;SDS011;553;51.038;7.216;2023-03-14T05:15:53;9.63;;;1.00;;
1128;SDS011;553;51.038;7.216;2023-03-14T05:18:39;3.60;;;1.53;;
1128;SDS011;553;51.038;7.216;2023-03-14T05:21:24;6.50;;;1.07;;
1128;SDS011;553;51.038;7.216;2023-03-14T05:24:08;6.00;;;1.27;;
1128;SDS011;553;51.038;7.216;2023-03-14T05:26:53;5.47;;;1.10;;
1128;SDS011;553;51.038;7.216;2023-03-14T05:29:35;3.43;;;2.30;;
1128;SDS011;553;51.038;7.216;2023-03-14T05:32:22;3.13;;;1.00;;
1128;SDS011;553;51.038;7.216;2023-03-14T05:35:08;5.47;;;1.07;;
1128;SDS011;553;51.038;7.216;2023-03-14T05:38:04;3.77;;;0.90;;
1128;SDS011;553;51.038;7.216;2023-03-14T05:40:36;2.07;;;0.83;;
1128;SDS011;553;51.038;7.216;2023-03-14T05:43:23;5.30;;;0.80;;
1128;SDS011;553;51.038;7.216;2023-03-14T05:46:00;4.00;;;1.00;;
1128;SDS011;553;51.038;7.216;2023-03-14T05:48:37;6.63;;;0.70;;
1128;SDS011;553;51.038;7.216;2023-03-14T05:51:11;4.97;;;0.97;;
1128;SDS011;553;51.038;7.216;2023-03-14T05:54:10;2.90;;;0.70;;
1128;SDS011;553;51.038;7.216;2023-03-14T05:56:55;2.43;;;0.60;;
1128;SDS011;553;51.038;7.216;2023-03-14T05:59:38;4.90;;;0.77;;
1128;SDS011;553;51.038;7.216;2023-03-14T06:02:12;1.70;;;0.90;;
1128;SDS011;553;51.038;7.216;2023-03-14T06:04:49;1.20;;;0.40;;
1128;SDS011;553;51.038;7.216;2023-03-14T06:07:16;1.20;;;0.50;;
1128;SDS011;553;51.038;7.216;2023-03-14T06:09:43;3.27;;;0.60;;
1128;SDS011;553;51.038;7.216;2023-03-14T06:12:10;1.50;;;0.50;;
1128;SDS011;553;51.038;7.216;2023-03-14T06:14:41;3.63;;;0.50;;
1128;SDS011;553;51.038;7.216;2023-03-14T06:17:08;1.77;;;0.57;;
1128;SDS011;553;51.038;7.216;2023-03-14T06:19:42;3.73;;;0.50;;
1128;SDS011;553;51.038;7.216;2023-03-14T06:22:11;1.07;;;0.47;;
1128;SDS011;553;51.038;7.216;2023-03-14T06:24:38;3.70;;;0.60;;
1128;SDS011;553;51.038;7.216;2023-03-14T06:27:04;0.67;;;0.27;;
1128;SDS011;553;51.038;7.216;2023-03-14T06:29:31;1.53;;;0.40;;
1128;SDS011;553;51.038;7.216;2023-03-14T06:31:59;3.57;;;0.37;;
1128;SDS011;553;51.038;7.216;2023-03-14T06:34:26;1.07;;;0.40;;
1128;SDS011;553;51.038;7.216;2023-03-14T06:36:53;0.80;;;0.40;;
1128;SDS011;553;51.038;7.216;2023-03-14T06:39:19;2.13;;;0.40;;
1128;SDS011;553;51.038;7.216;2023-03-14T06:41:52;0.90;;;0.40;;
1128;SDS011;553;51.038;7.216;2023-03-14T06:44:19;2.03;;;0.90;;
1128;SDS011;553;51.038;7.216;2023-03-14T06:46:45;0.93;;;0.30;;
1128;SDS011;553;51.038;7.216;2023-03-14T06:49:12;1.33;;;0.50;;
1128;SDS011;553;51.038;7.216;2023-03-14T06:51:40;2.27;;;0.67;;
1128;SDS011;553;51.038;7.216;2023-03-14T06:54:09;1.57;;;0.70;;
1128;SDS011;553;51.038;7.216;2023-03-14T06:56:36;1.20;;;0.60;;
1128;SDS011;553;51.038;7.216;2023-03-14T06:59:03;2.47;;;0.40;;
1128;SDS011;553;51.038;7.216;2023-03-14T07:01:31;1.87;;;0.40;;
1128;SDS011;553;51.038;7.216;2023-03-14T07:04:04;1.00;;;0.40;;
1128;SDS011;553;51.038;7.216;2023-03-14T07:06:33;0.67;;;0.37;;
1128;SDS011;553;51.038;7.216;2023-03-14T07:09:00;1.47;;;0.40;;
1128;SDS011;553;51.038;7.216;2023-03-14T07:11:29;1.20;;;0.40;;
1128;SDS011;553;51.038;7.216;2023-03-14T07:13:56;1.13;;;0.40;;
1128;SDS011;553;51.038;7.216;2023-03-14T07:16:23;0.83;;;0.30;;
1128;SDS011;553;51.038;7.216;2023-03-14T07:18:50;0.50;;;0.20;;
1128;SDS011;553;51.038;7.216;2023-03-14T07:21:18;0.67;;;0.30;;
1128;SDS011;553;51.038;7.216;2023-03-14T07:23:44;1.50;;;0.40;;
1128;SDS011;553;51.038;7.216;2023-03-14T07:26:12;0.50;;;0.30;;
1128;SDS011;553;51.038;7.216;2023-03-14T07:28:44;0.97;;;0.30;;
1128;SDS011;553;51.038;7.216;2023-03-14T07:31:15;0.60;;;0.30;;
1128;SDS011;553;51.038;7.216;2023-03-14T07:33:42;2.00;;;0.50;;
1128;SDS011;553;51.038;7.216;2023-03-14T07:36:09;0.70;;;0.40;;
1128;SDS011;553;51.038;7.216;2023-03-14T07:38:38;0.87;;;0.30;;
1128;SDS011;553;51.038;7.216;2023-03-14T07:41:11;1.50;;;0.70;;
1128;SDS011;553;51.038;7.216;2023-03-14T07:43:46;1.20;;;0.80;;
1128;SDS011;553;51.038;7.216;2023-03-14T07:46:13;1.87;;;1.00;;
1128;SDS011;553;51.038;7.216;2023-03-14T07:48:40;3.67;;;1.10;;
1128;SDS011;553;51.038;7.216;2023-03-14T07:51:07;1.07;;;0.77;;
1128;SDS011;553;51.038;7.216;2023-03-14T07:53:37;3.17;;;0.70;;
1128;SDS011;553;51.038;7.216;2023-03-14T07:56:05;2.50;;;0.50;;
1128;SDS011;553;51.038;7.216;2023-03-14T07:58:32;0.60;;;0.40;;
1128;SDS011;553;51.038;7.216;2023-03-14T08:00:59;4.47;;;0.90;;
1128;SDS011;553;51.038;7.216;2023-03-14T08:03:25;0.50;;;0.30;;
1128;SDS011;553;51.038;7.216;2023-03-14T08:05:52;0.70;;;0.40;;
1128;SDS011;553;51.038;7.216;2023-03-14T08:08:19;1.03;;;0.57;;
1128;SDS011;553;51.038;7.216;2023-03-14T08:10:46;0.60;;;0.40;;
1128;SDS011;553;51.038;7.216;2023-03-14T08:13:12;2.50;;;0.60;;
1128;SDS011;553;51.038;7.216;2023-03-14T08:15:39;2.03;;;0.40;;
1128;SDS011;553;51.038;7.216;2023-03-14T08:18:06;0.70;;;0.30;;
1128;SDS011;553;51.038;7.216;2023-03-14T08:20:33;0.90;;;0.37;;
1128;SDS011;553;51.038;7.216;2023-03-14T08:23:00;1.83;;;0.40;;
1128;SDS011;553;51.038;7.216;2023-03-14T08:25:27;1.07;;;0.30;;
1128;SDS011;553;51.038;7.216;2023-03-14T08:27:55;1.13;;;0.40;;
1128;SDS011;553;51.038;7.216;2023-03-14T08:30:21;2.47;;;0.33;;
1128;SDS011;553;51.038;7.216;2023-03-14T08:32:49;0.93;;;0.23;;
1128;SDS011;553;51.038;7.216;2023-03-14T08:35:16;1.93;;;0.40;;
1128;SDS011;553;51.038;7.216;2023-03-14T08:37:42;0.70;;;0.40;;
1128;SDS011;553;51.038;7.216;2023-03-14T08:40:09;0.73;;;0.30;;
1128;SDS011;553;51.038;7.216;2023-03-14T08:42:38;0.77;;;0.30;;
1128;SDS011;553;51.038;7.216;2023-03-14T08:45:06;0.80;;;0.30;;
1128;SDS011;553;51.038;7.216;2023-03-14T08:47:34;4.60;;;0.50;;
1128;SDS011;553;51.038;7.216;2023-03-14T08:50:02;0.83;;;0.50;;
1128;SDS011;553;51.038;7.216;2023-03-14T08:52:30;1.00;;;0.60;;
1128;SDS011;553;51.038;7.216;2023-03-14T08:54:57;0.80;;;0.43;;
1128;SDS011;553;51.038;7.216;2023-03-14T08:57:24;1.03;;;0.60;;
1128;SDS011;553;51.038;7.216;2023-03-14T08:59:54;1.83;;;0.97;;
1128;SDS011;553;51.038;7.216;2023-03-14T09:02:21;2.00;;;0.90;;
1128;SDS011;553;51.038;7.216;2023-03-14T09:04:49;0.87;;;0.47;;
1128;SDS011;553;51.038;7.216;2023-03-14T09:07:17;0.70;;;0.57;;
1128;SDS011;553;51.038;7.216;2023-03-14T09:09:44;1.57;;;0.67;;
1128;SDS011;553;51.038;7.216;2023-03-14T09:12:11;0.70;;;0.60;;
1128;SDS011;553;51.038;7.216;2023-03-14T09:14:38;1.00;;;0.80;;
1128;SDS011;553;51.038;7.216;2023-03-14T09:17:05;0.90;;;0.60;;
1128;SDS011;553;51.038;7.216;2023-03-14T09:19:32;2.50;;;1.30;;
1128;SDS011;553;51.038;7.216;2023-03-14T09:21:58;1.13;;;0.87;;
1128;SDS011;553;51.038;7.216;2023-03-14T09:24:25;2.17;;;1.10;;
1128;SDS011;553;51.038;7.216;2023-03-14T09:26:52;1.10;;;0.70;;
1128;SDS011;553;51.038;7.216;2023-03-14T09:29:18;3.63;;;1.20;;
1128;SDS011;553;51.038;7.216;2023-03-14T09:31:46;2.63;;;1.00;;
1128;SDS011;553;51.038;7.216;2023-03-14T09:34:12;3.03;;;0.90;;
1128;SDS011;553;51.038;7.216;2023-03-14T09:36:39;1.13;;;0.50;;
1128;SDS011;553;51.038;7.216;2023-03-14T09:39:06;2.00;;;0.73;;
1128;SDS011;553;51.038;7.216;2023-03-14T09:41:34;0.97;;;0.67;;
1128;SDS011;553;51.038;7.216;2023-03-14T09:46:32;1.50;;;0.80;;
1128;SDS011;553;51.038;7.216;2023-03-14T09:49:01;1.00;;;0.50;;
1128;SDS011;553;51.038;7.216;2023-03-14T09:51:28;1.67;;;0.50;;
1128;SDS011;553;51.038;7.216;2023-03-14T09:53:55;1.60;;;1.07;;
1128;SDS011;553;51.038;7.216;2023-03-14T09:56:23;1.53;;;0.87;;
1128;SDS011;553;51.038;7.216;2023-03-14T09:58:57;2.00;;;0.83;;
1128;SDS011;553;51.038;7.216;2023-03-14T10:01:27;1.40;;;0.97;;
1128;SDS011;553;51.038;7.216;2023-03-14T10:04:00;1.63;;;0.60;;
1128;SDS011;553;51.038;7.216;2023-03-14T10:06:36;1.13;;;0.40;;
1128;SDS011;553;51.038;7.216;2023-03-14T10:09:03;1.13;;;0.60;;
1128;SDS011;553;51.038;7.216;2023-03-14T10:11:31;2.27;;;0.70;;
1128;SDS011;553;51.038;7.216;2023-03-14T10:14:06;0.80;;;0.57;;
1128;SDS011;553;51.038;7.216;2023-03-14T10:16:36;2.97;;;0.57;;
1128;SDS011;553;51.038;7.216;2023-03-14T10:19:08;1.20;;;0.77;;
1128;SDS011;553;51.038;7.216;2023-03-14T10:21:38;1.23;;;0.80;;
1128;SDS011;553;51.038;7.216;2023-03-14T10:24:25;1.33;;;0.73;;
1128;SDS011;553;51.038;7.216;2023-03-14T10:26:53;1.10;;;1.00;;
1128;SDS011;553;51.038;7.216;2023-03-14T10:29:21;1.00;;;0.87;;
1128;SDS011;553;51.038;7.216;2023-03-14T10:31:52;1.70;;;1.20;;
1128;SDS011;553;51.038;7.216;2023-03-14T10:34:34;2.90;;;2.33;;
1128;SDS011;553;51.038;7.216;2023-03-14T10:37:06;2.43;;;1.80;;
1128;SDS011;553;51.038;7.216;2023-03-14T10:39:52;1.97;;;1.60;;
1128;SDS011;553;51.038;7.216;2023-03-14T10:42:22;2.43;;;1.30;;
1128;SDS011;553;51.038;7.216;2023-03-14T10:44:56;2.83;;;1.40;;
1128;SDS011;553;51.038;7.216;2023-03-14T10:47:26;1.70;;;1.50;;
1128;SDS011;553;51.038;7.216;2023-03-14T10:49:55;1.27;;;0.77;;
1128;SDS011;553;51.038;7.216;2023-03-14T10:52:24;1.00;;;0.70;;
1128;SDS011;553;51.038;7.216;2023-03-14T10:55:13;3.23;;;0.70;;
1128;SDS011;553;51.038;7.216;2023-03-14T10:57:41;2.53;;;1.70;;
1128;SDS011;553;51.038;7.216;2023-03-14T11:00:12;2.50;;;1.90;;
1128;SDS011;553;51.038;7.216;2023-03-14T11:03:25;3.73;;;2.30;;
1128;SDS011;553;51.038;7.216;2023-03-14T11:05:48;2.10;;;1.90;;
1128;SDS011;553;51.038;7.216;2023-03-14T11:08:35;3.33;;;2.73;;
1128;SDS011;553;51.038;7.216;2023-03-14T11:11:20;3.90;;;2.60;;
1128;SDS011;553;51.038;7.216;2023-03-14T11:16:54;3.57;;;3.27;;
1128;SDS011;553;51.038;7.216;2023-03-14T11:19:39;7.20;;;3.20;;
1128;SDS011;553;51.038;7.216;2023-03-14T11:22:21;5.30;;;3.70;;
1128;SDS011;553;51.038;7.216;2023-03-14T11:25:12;4.57;;;2.83;;
1128;SDS011;553;51.038;7.216;2023-03-14T11:27:45;4.83;;;3.70;;
1128;SDS011;553;51.038;7.216;2023-03-14T11:30:32;6.33;;;3.73;;
1128;SDS011;553;51.038;7.216;2023-03-14T11:36:07;2.10;;;1.67;;
1128;SDS011;553;51.038;7.216;2023-03-14T11:38:37;1.87;;;1.70;;
1128;SDS011;553;51.038;7.216;2023-03-14T11:41:40;1.30;;;1.20;;
1128;SDS011;553;51.038;7.216;2023-03-14T11:44:11;1.67;;;1.10;;
1128;SDS011;553;51.038;7.216;2023-03-14T11:46:53;1.30;;;0.83;;
1128;SDS011;553;51.038;7.216;2023-03-14T11:49:44;3.27;;;2.00;;
1128;SDS011;553;51.038;7.216;2023-03-14T11:52:39;4.33;;;3.60;;
1128;SDS011;553;51.038;7.216;2023-03-14T11:57:39;4.93;;;4.30;;
1128;SDS011;553;51.038;7.216;2023-03-14T12:03:02;3.37;;;2.63;;
1128;SDS011;553;51.038;7.216;2023-03-14T12:08:30;3.33;;;2.60;;
1128;SDS011;553;51.038;7.216;2023-03-14T12:11:12;4.10;;;2.93;;
1128;SDS011;553;51.038;7.216;2023-03-14T12:13:50;5.10;;;3.47;;
1128;SDS011;553;51.038;7.216;2023-03-14T12:19:14;5.73;;;3.83;;
1128;SDS011;553;51.038;7.216;2023-03-14T12:21:55;7.60;;;5.70;;
1128;SDS011;553;51.038;7.216;2023-03-14T12:24:27;9.70;;;5.60;;
1128;SDS011;553;51.038;7.216;2023-03-14T12:26:59;5.77;;;4.93;;
1128;SDS011;553;51.038;7.216;2023-03-14T12:29:27;7.07;;;4.83;;
1128;SDS011;553;51.038;7.216;2023-03-14T12:34:30;7.70;;;3.73;;
1128;SDS011;553;51.038;7.216;2023-03-14T12:36:59;3.13;;;2.93;;
1128;SDS011;553;51.038;7.216;2023-03-14T12:42:37;4.27;;;2.70;;
1128;SDS011;553;51.038;7.216;2023-03-14T12:47:56;6.60;;;3.30;;
1128;SDS011;553;51.038;7.216;2023-03-14T12:50:43;5.30;;;3.13;;
1128;SDS011;553;51.038;7.216;2023-03-14T12:55:54;4.00;;;2.77;;
1128;SDS011;553;51.038;7.216;2023-03-14T12:59:29;4.27;;;2.47;;
1128;SDS011;553;51.038;7.216;2023-03-14T13:01:46;5.83;;;2.20;;
1128;SDS011;553;51.038;7.216;2023-03-14T13:04:19;4.93;;;3.30;;
1128;SDS011;553;51.038;7.216;2023-03-14T13:07:04;4.20;;;2.30;;
1128;SDS011;553;51.038;7.216;2023-03-14T13:09:49;3.57;;;2.00;;
1128;SDS011;553;51.038;7.216;2023-03-14T13:12:22;3.70;;;1.90;;
1128;SDS011;553;51.038;7.216;2023-03-14T13:14:54;2.83;;;1.40;;
1128;SDS011;553;51.038;7.216;2023-03-14T13:17:27;5.63;;;2.23;;
1128;SDS011;553;51.038;7.216;2023-03-14T13:20:05;6.50;;;2.50;;
1128;SDS011;553;51.038;7.216;2023-03-14T13:22:45;4.00;;;1.93;;
1128;SDS011;553;51.038;7.216;2023-03-14T13:25:13;3.07;;;1.90;;
1128;SDS011;553;51.038;7.216;2023-03-14T13:27:40;2.67;;;1.90;;
1128;SDS011;553;51.038;7.216;2023-03-14T13:30:42;2.00;;;1.80;;
1128;SDS011;553;51.038;7.216;2023-03-14T13:33:05;3.90;;;2.00;;
1128;SDS011;553;51.038;7.216;2023-03-14T13:35:39;7.30;;;2.10;;
1128;SDS011;553;51.038;7.216;2023-03-14T13:38:22;3.53;;;1.90;;
1128;SDS011;553;51.038;7.216;2023-03-14T13:40:55;5.27;;;2.17;;
1128;SDS011;553;51.038;7.216;2023-03-14T13:43:32;5.67;;;1.60;;
1128;SDS011;553;51.038;7.216;2023-03-14T13:46:03;6.77;;;3.07;;
1128;SDS011;553;51.038;7.216;2023-03-14T13:48:53;6.97;;;3.30;;
1128;SDS011;553;51.038;7.216;2023-03-14T13:51:23;7.50;;;4.57;;
1128;SDS011;553;51.038;7.216;2023-03-14T13:53:52;12.23;;;5.93;;
1128;SDS011;553;51.038;7.216;2023-03-14T13:56:21;11.07;;;5.63;;
1128;SDS011;553;51.038;7.216;2023-03-14T13:58:50;10.63;;;5.10;;
1128;SDS011;553;51.038;7.216;2023-03-14T14:03:58;5.07;;;2.27;;
1128;SDS011;553;51.038;7.216;2023-03-14T14:06:32;11.37;;;3.70;;
1128;SDS011;553;51.038;7.216;2023-03-14T14:09:24;11.93;;;3.03;;
1128;SDS011;553;51.038;7.216;2023-03-14T14:11:53;6.17;;;2.53;;
1128;SDS011;553;51.038;7.216;2023-03-14T14:14:49;7.43;;;2.47;;
1128;SDS011;553;51.038;7.216;2023-03-14T14:17:31;9.57;;;3.30;;
1128;SDS011;553;51.038;7.216;2023-03-14T14:20:04;8.87;;;3.70;;
1128;SDS011;553;51.038;7.216;2023-03-14T14:22:35;8.80;;;3.93;;
1128;SDS011;553;51.038;7.216;2023-03-14T14:25:02;8.60;;;4.20;;
1128;SDS011;553;51.038;7.216;2023-03-14T14:27:37;8.53;;;3.87;;
1128;SDS011;553;51.038;7.216;2023-03-14T14:32:46;9.77;;;3.63;;
1128;SDS011;553;51.038;7.216;2023-03-14T14:38:21;14.80;;;4.00;;
1128;SDS011;553;51.038;7.216;2023-03-14T14:40:49;10.50;;;3.57;;
1128;SDS011;553;51.038;7.216;2023-03-14T14:43:20;9.50;;;2.90;;
1128;SDS011;553;51.038;7.216;2023-03-14T14:45:50;10.47;;;3.13;;
1128;SDS011;553;51.038;7.216;2023-03-14T14:48:23;13.33;;;3.73;;
1128;SDS011;553;51.038;7.216;2023-03-14T14:51:01;12.93;;;3.03;;
1128;SDS011;553;51.038;7.216;2023-03-14T14:53:39;10.57;;;2.77;;
1128;SDS011;553;51.038;7.216;2023-03-14T14:56:24;10.67;;;2.97;;
1128;SDS011;553;51.038;7.216;2023-03-14T14:58:57;12.27;;;2.50;;
1128;SDS011;553;51.038;7.216;2023-03-14T15:01:28;7.33;;;2.90;;
1128;SDS011;553;51.038;7.216;2023-03-14T15:03:59;14.03;;;3.60;;
1128;SDS011;553;51.038;7.216;2023-03-14T15:06:27;8.43;;;2.93;;
1128;SDS011;553;51.038;7.216;2023-03-14T15:08:55;14.43;;;3.33;;
1128;SDS011;553;51.038;7.216;2023-03-14T15:11:23;12.93;;;3.03;;
1128;SDS011;553;51.038;7.216;2023-03-14T15:13:51;10.70;;;2.90;;
1128;SDS011;553;51.038;7.216;2023-03-14T15:16:23;14.03;;;3.33;;
1128;SDS011;553;51.038;7.216;2023-03-14T15:18:55;13.57;;;3.47;;
1128;SDS011;553;51.038;7.216;2023-03-14T15:21:23;12.90;;;3.40;;
1128;SDS011;553;51.038;7.216;2023-03-14T15:23:51;20.87;;;4.67;;
1128;SDS011;553;51.038;7.216;2023-03-14T15:26:19;15.13;;;3.13;;
1128;SDS011;553;51.038;7.216;2023-03-14T15:28:47;13.83;;;3.53;;
1128;SDS011;553;51.038;7.216;2023-03-14T15:31:14;17.17;;;3.60;;
1128;SDS011;553;51.038;7.216;2023-03-14T15:33:44;11.10;;;4.43;;
1128;SDS011;553;51.038;7.216;2023-03-14T15:36:16;9.53;;;3.40;;
1128;SDS011;553;51.038;7.216;2023-03-14T15:38:51;13.73;;;3.70;;
1128;SDS011;553;51.038;7.216;2023-03-14T15:41:19;11.47;;;3.00;;
1128;SDS011;553;51.038;7.216;2023-03-14T15:43:46;11.20;;;3.53;;
1128;SDS011;553;51.038;7.216;2023-03-14T15:46:14;12.33;;;3.93;;
1128;SDS011;553;51.038;7.216;2023-03-14T15:48:43;14.07;;;4.50;;
1128;SDS011;553;51.038;7.216;2023-03-14T15:51:11;13.70;;;4.60;;
1128;SDS011;553;51.038;7.216;2023-03-14T15:53:38;21.43;;;4.57;;
1128;SDS011;553;51.038;7.216;2023-03-14T15:56:06;19.03;;;6.00;;
1128;SDS011;553;51.038;7.216;2023-03-14T15:58:37;15.60;;;4.57;;
1128;SDS011;553;51.038;7.216;2023-03-14T16:01:06;18.27;;;4.03;;
1128;SDS011;553;51.038;7.216;2023-03-14T16:03:35;10.43;;;2.60;;
1128;SDS011;553;51.038;7.216;2023-03-14T16:06:02;11.13;;;3.57;;
1128;SDS011;553;51.038;7.216;2023-03-14T16:08:29;15.13;;;4.10;;
1128;SDS011;553;51.038;7.216;2023-03-14T16:10:57;14.77;;;3.33;;
1128;SDS011;553;51.038;7.216;2023-03-14T16:13:25;10.50;;;2.60;;
1128;SDS011;553;51.038;7.216;2023-03-14T16:15:54;9.27;;;2.03;;
1128;SDS011;553;51.038;7.216;2023-03-14T16:18:22;9.70;;;2.10;;
1128;SDS011;553;51.038;7.216;2023-03-14T16:20:56;9.60;;;1.90;;
1128;SDS011;553;51.038;7.216;2023-03-14T16:23:24;15.67;;;3.10;;
1128;SDS011;553;51.038;7.216;2023-03-14T16:25:53;7.97;;;1.50;;
1128;SDS011;553;51.038;7.216;2023-03-14T16:28:20;12.83;;;2.87;;
1128;SDS011;553;51.038;7.216;2023-03-14T16:30:47;13.73;;;4.33;;
1128;SDS011;553;51.038;7.216;2023-03-14T16:33:14;10.27;;;2.33;;
1128;SDS011;553;51.038;7.216;2023-03-14T16:35:52;5.53;;;2.30;;
1128;SDS011;553;51.038;7.216;2023-03-14T16:38:21;6.50;;;2.23;;
1128;SDS011;553;51.038;7.216;2023-03-14T16:40:57;6.00;;;1.67;;